Time;durP1;ratioP1;P1;durP2;ratioP2;P2;SDS_P1;SDS_P2;PMS_P1;PMS_P2;Temp;Humidity;BMP_temperature;BMP_pressure;BME280_temperature;BME280_humidity;BME280_pressure;Samples;Min_cycle;Max_cycle;Signal;HPM_P1;HPM_P2
2021/11/03 00:44:47;;;;;;;69.68;33.65;;;;;;;-140.66;100.00;55571.53;5722742;23;20263;-73
2021/11/03 00:47:33;;;;;;;66.18;32.67;;;;;;;-140.66;100.00;55571.53;4937209;29;20035;-73
2021/11/03 00:50:21;;;;;;;75.82;34.42;;;;;;;-140.66;100.00;55571.53;4923463;29;20098;-73
2021/11/03 00:53:07;;;;;;;63.72;32.30;;;;;;;-140.66;100.00;55571.53;4936760;29;20083;-74
2021/11/03 00:55:52;;;;;;;64.45;33.83;;;;;;;-140.66;100.00;55571.53;4937644;29;20102;-73
2021/11/03 00:58:38;;;;;;;72.45;33.88;;;;;;;-140.66;100.00;55571.53;4937810;29;20034;-73
2021/11/03 01:01:24;;;;;;;71.72;34.75;;;;;;;-140.66;100.00;55571.53;4937765;29;20027;-73
2021/11/03 01:04:10;;;;;;;72.15;33.58;;;;;;;-140.66;100.00;55571.53;4937590;29;20093;-73
2021/11/03 02:05:36;;;;;;;74.15;37.65;;;;;;;-140.66;100.00;55571.53;6030356;23;20030;31
2021/11/03 02:08:23;;;;;;;83.53;39.10;;;;;;;-140.66;100.00;55571.53;4901054;29;20060;-73
2021/11/03 02:11:10;;;;;;;83.22;39.90;;;;;;;-140.66;100.00;55571.53;4902442;29;20135;-73
2021/11/03 02:13:58;;;;;;;74.82;37.72;;;;;;;-140.66;100.00;55571.53;4914406;29;20115;-73
2021/11/03 02:16:48;;;;;;;72.72;36.90;;;;;;;-140.66;100.00;55571.53;4918010;29;20108;-73
2021/11/03 02:19:35;;;;;;;74.47;35.65;;;;;;;-140.66;100.00;55571.53;4920551;29;20110;-73
2021/11/03 02:22:29;;;;;;;72.43;36.03;;;;;;;-140.66;100.00;55571.53;4920379;29;20036;-73
2021/11/03 02:25:19;;;;;;;62.17;32.90;;;;;;;-140.66;100.00;55571.53;4920052;29;20042;-73
2021/11/03 03:25:26;;;;;;;72.93;30.65;;;;;;;-140.66;100.00;55571.53;5250586;23;20614;-73
2021/11/03 03:28:15;;;;;;;66.13;30.23;;;;;;;-140.66;100.00;55571.53;4957022;29;20533;-73
2021/11/03 03:31:01;;;;;;;75.50;32.33;;;;;;;-140.66;100.00;55571.53;4957444;29;20027;-74
2021/11/03 03:33:51;;;;;;;69.20;31.90;;;;;;;-140.66;100.00;55571.53;4957374;29;20034;-74
2021/11/03 03:36:37;;;;;;;82.20;33.95;;;;;;;-140.66;100.00;55571.53;4956713;29;20035;-73
2021/11/03 03:39:25;;;;;;;84.03;34.88;;;;;;;-140.66;100.00;55571.53;4943303;29;20023;-73
2021/11/03 03:42:16;;;;;;;76.35;33.25;;;;;;;-140.66;100.00;55571.53;4943934;29;20027;-75
2021/11/03 04:32:37;;;;;;;50.28;26.33;;;;;;;-140.66;100.00;55571.53;5676849;23;20373;-73
2021/11/03 04:35:23;;;;;;;50.83;26.42;;;;;;;-140.66;100.00;55571.53;4956344;29;20077;-73
2021/11/03 04:38:09;;;;;;;55.58;29.27;;;;;;;-140.66;100.00;55571.53;4956082;29;20187;-73
2021/11/03 04:40:55;;;;;;;51.67;27.73;;;;;;;-140.66;100.00;55571.53;4955907;29;20054;-73
2021/11/03 04:43:41;;;;;;;57.28;29.67;;;;;;;-140.66;100.00;55571.53;4955782;29;20027;-73
2021/11/03 04:46:27;;;;;;;53.88;27.00;;;;;;;-140.66;100.00;55571.53;4941514;29;20049;-74
2021/11/03 04:49:13;;;;;;;52.28;27.48;;;;;;;-140.66;100.00;55571.53;4955788;29;20042;-73
2021/11/03 04:51:59;;;;;;;49.00;26.77;;;;;;;-140.66;100.00;55571.53;4955700;29;20367;-72
2021/11/03 05:28:19;;;;;;;41.63;22.73;;;;;;;-140.66;100.00;55571.53;5911316;23;20018;-74
2021/11/03 05:31:05;;;;;;;37.65;22.95;;;;;;;-140.66;100.00;55571.53;4955603;29;20510;-73
2021/11/03 05:33:51;;;;;;;42.05;24.77;;;;;;;-140.66;100.00;55571.53;4942306;29;20469;-73
2021/11/03 05:36:37;;;;;;;37.72;22.27;;;;;;;-140.66;100.00;55571.53;4927031;29;20032;-74
2021/11/03 05:39:23;;;;;;;42.28;23.95;;;;;;;-140.66;100.00;55571.53;4922463;29;20366;-73
2021/11/03 05:42:10;;;;;;;48.28;25.67;;;;;;;-140.66;100.00;55571.53;4936666;29;20051;-74
2021/11/03 05:44:56;;;;;;;40.25;23.50;;;;;;;-140.66;100.00;55571.53;4936120;29;20110;-74
2021/11/03 05:47:42;;;;;;;39.45;23.52;;;;;;;-140.66;100.00;55571.53;4936857;29;20438;-74
2021/11/03 06:15:50;;;;;;;44.65;26.58;;;;;;;-140.66;100.00;55571.53;5769854;23;20040;-74
2021/11/03 06:18:36;;;;;;;48.75;27.80;;;;;;;-140.66;100.00;55571.53;4955193;29;20098;-74
2021/11/03 06:21:22;;;;;;;42.33;27.08;;;;;;;-140.66;100.00;55571.53;4955337;29;20054;-74
2021/11/03 06:24:08;;;;;;;47.65;29.33;;;;;;;-140.66;100.00;55571.53;4955408;29;20442;-74
2021/11/03 06:26:54;;;;;;;43.10;26.35;;;;;;;-140.66;100.00;55571.53;4954626;29;20035;-73
2021/11/03 06:29:39;;;;;;;40.22;24.30;;;;;;;-140.66;100.00;55571.53;4927550;28;20119;-73
2021/11/03 06:32:25;;;;;;;36.45;21.95;;;;;;;-140.66;100.00;55571.53;4945022;29;20034;-73
2021/11/03 06:35:12;;;;;;;35.13;21.35;;;;;;;-140.66;100.00;55571.53;4959772;29;20030;-73
2021/11/03 07:05:01;;;;;;;46.65;27.45;;;;;;;-140.66;100.00;55571.53;5936360;23;20025;-75
2021/11/03 07:07:47;;;;;;;41.17;24.98;;;;;;;-140.66;100.00;55571.53;4957800;29;20043;-75
2021/11/03 07:10:37;;;;;;;40.58;25.48;;;;;;;-140.66;100.00;55571.53;4957778;29;20482;-76
2021/11/03 07:13:25;;;;;;;41.33;24.10;;;;;;;-140.66;100.00;55571.53;4957949;29;20027;-75
2021/11/03 07:16:14;;;;;;;41.72;25.00;;;;;;;-140.66;100.00;55571.53;4957725;29;20058;-75
2021/11/03 07:19:01;;;;;;;44.00;24.85;;;;;;;-140.66;100.00;55571.53;4945034;29;20035;-75
2021/11/03 08:59:22;;;;;;;25.38;17.92;;;;;;;-140.66;100.00;55571.53;4955218;29;20121;-75
2021/11/03 09:02:08;;;;;;;28.15;20.13;;;;;;;-140.66;100.00;55571.53;4955956;29;20039;-74
2021/11/03 09:04:54;;;;;;;27.25;18.70;;;;;;;-140.66;100.00;55571.53;4955972;29;20031;-74
2021/11/03 09:07:40;;;;;;;25.05;17.90;;;;;;;-140.66;100.00;55571.53;4956618;29;20101;-74
2021/11/03 09:10:28;;;;;;;25.23;17.92;;;;;;;-140.66;100.00;55571.53;4956140;29;20035;-76
2021/11/03 09:24:46;;;;;;;21.98;17.23;;;;;;;-140.66;100.00;55571.53;5156345;23;20135;-72
2021/11/03 09:27:33;;;;;;;26.77;19.08;;;;;;;-140.66;100.00;55571.53;4936615;29;20466;-74
2021/11/03 09:30:23;;;;;;;23.92;18.48;;;;;;;-140.66;100.00;55571.53;4936465;29;20043;-73
2021/11/03 09:33:11;;;;;;;23.33;18.08;;;;;;;-140.66;100.00;55571.53;4936810;29;20035;-72
2021/11/03 09:35:57;;;;;;;24.80;17.85;;;;;;;-140.66;100.00;55571.53;4937002;29;20036;-73
2021/11/03 09:38:46;;;;;;;26.17;18.55;;;;;;;-140.66;100.00;55571.53;4936579;29;20043;-73
2021/11/03 10:39:01;;;;;;;25.45;19.48;;;;;;;-140.66;100.00;55571.53;5276011;23;20084;-75
2021/11/03 10:42:00;;;;;;;25.67;19.80;;;;;;;-140.66;100.00;55571.53;4945065;29;20044;-75
2021/11/03 10:44:47;;;;;;;26.58;19.48;;;;;;;-140.66;100.00;55571.53;4959426;29;20464;-75
2021/11/03 10:47:33;;;;;;;23.80;18.58;;;;;;;-140.66;100.00;55571.53;4939147;29;20035;-75
2021/11/03 10:50:28;;;;;;;30.88;22.08;;;;;;;-140.66;100.00;55571.53;4939539;29;20075;-75
2021/11/03 12:25:31;;;;;;;21.25;14.13;;;;;;;-140.66;100.00;55571.53;5723171;23;20047;-69
2021/11/03 12:28:19;;;;;;;17.20;12.70;;;;;;;-140.66;100.00;55571.53;4949650;28;20043;-69
2021/11/03 12:31:16;;;;;;;20.23;14.80;;;;;;;-140.66;100.00;55571.53;4950866;29;20035;-69
2021/11/03 15:23:50;;;;;;;36.95;22.60;;;;;;;-140.66;100.00;55571.53;5674621;23;20043;-71
2021/11/03 15:26:36;;;;;;;38.75;25.08;;;;;;;-140.66;100.00;55571.53;4955743;28;20070;-70
2021/11/03 15:29:28;;;;;;;43.03;24.67;;;;;;;-140.66;100.00;55571.53;4956304;28;20038;-71
2021/11/03 15:32:23;;;;;;;48.00;25.63;;;;;;;-140.66;100.00;55571.53;4954216;28;20436;-70
2021/11/03 15:35:18;;;;;;;53.05;26.20;;;;;;;-140.66;100.00;55571.53;4953693;28;20457;-71
2021/11/03 15:38:17;;;;;;;49.05;30.83;;;;;;;-140.66;100.00;55571.53;4953334;28;20034;-71
2021/11/03 15:41:07;;;;;;;47.85;30.63;;;;;;;-140.66;100.00;55571.53;4953974;28;20330;-70
2021/11/03 15:43:58;;;;;;;56.25;31.15;;;;;;;-140.66;100.00;55571.53;4951244;28;20121;-71
2021/11/03 15:46:44;;;;;;;56.72;33.65;;;;;;;-140.66;100.00;55571.53;4953090;28;20118;-70
2021/11/03 15:49:36;;;;;;;49.45;32.38;;;;;;;-140.66;100.00;55571.53;4954646;28;20464;-71
2021/11/03 15:52:22;;;;;;;53.17;31.38;;;;;;;-140.66;100.00;55571.53;4965827;28;20378;-71
2021/11/03 15:55:13;;;;;;;57.72;33.33;;;;;;;-140.66;100.00;55571.53;4954030;28;20035;-70
2021/11/03 15:57:59;;;;;;;50.85;32.72;;;;;;;-140.66;100.00;55571.53;4961993;28;20457;-71
2021/11/03 16:01:08;;;;;;;53.80;33.42;;;;;;;-140.66;100.00;55571.53;4956004;28;20429;-71
2021/11/03 16:40:03;;;;;;;144.80;72.90;;;;;;;-140.66;100.00;55571.53;5510384;23;20063;-70
2021/11/03 16:42:50;;;;;;;84.55;47.05;;;;;;;-140.66;100.00;55571.53;4973381;28;20160;-70
2021/11/03 16:45:49;;;;;;;55.88;37.22;;;;;;;-140.66;100.00;55571.53;4974016;28;20038;-70
2021/11/03 16:48:36;;;;;;;70.55;43.67;;;;;;;-140.66;100.00;55571.53;4973367;28;20065;-69
2021/11/03 16:51:22;;;;;;;67.45;39.95;;;;;;;-140.66;100.00;55571.53;4959577;28;20061;-69
2021/11/03 16:54:08;;;;;;;52.22;35.22;;;;;;;-140.66;100.00;55571.53;4959793;28;20274;-67
2021/11/03 16:56:56;;;;;;;58.40;37.63;;;;;;;-140.66;100.00;55571.53;4975128;28;20054;-69
2021/11/03 16:59:42;;;;;;;55.45;34.95;;;;;;;-140.66;100.00;55571.53;4975185;28;20023;-68
2021/11/03 17:02:27;;;;;;;51.28;34.28;;;;;;;-140.66;100.00;55571.53;4974985;28;20039;-69
2021/11/03 17:05:13;;;;;;;49.33;33.30;;;;;;;-140.66;100.00;55571.53;4975052;28;20031;-68
2021/11/03 18:18:19;;;;;;;41.47;28.80;;;;;;;-140.66;100.00;55571.53;5891588;23;20026;-68
2021/11/03 18:21:05;;;;;;;42.33;29.08;;;;;;;-140.66;100.00;55571.53;4976648;28;20039;-68
2021/11/03 18:23:52;;;;;;;40.95;27.02;;;;;;;-140.66;100.00;55571.53;4975703;28;20086;-68
2021/11/03 18:26:45;;;;;;;39.60;27.00;;;;;;;-140.66;100.00;55571.53;4977286;28;20026;-68
2021/11/03 18:29:36;;;;;;;36.28;25.63;;;;;;;-140.66;100.00;55571.53;4978007;28;20045;-68
2021/11/03 18:32:23;;;;;;;36.67;26.92;;;;;;;-140.66;100.00;55571.53;4979577;28;20174;-69
2021/11/03 18:35:09;;;;;;;40.83;28.45;;;;;;;-140.66;100.00;55571.53;4979020;28;20031;-69
2021/11/03 18:37:56;;;;;;;38.58;26.92;;;;;;;-140.66;100.00;55571.53;4978889;28;20114;-70
2021/11/03 18:40:41;;;;;;;36.13;26.25;;;;;;;-140.66;100.00;55571.53;4979054;28;20042;-69
2021/11/03 18:43:35;;;;;;;37.50;25.98;;;;;;;-140.66;100.00;55571.53;4978658;28;20457;-68
2021/11/03 18:46:22;;;;;;;39.25;26.80;;;;;;;-140.66;100.00;55571.53;4978171;28;20037;-68
2021/11/03 18:49:09;;;;;;;35.60;25.05;;;;;;;-140.66;100.00;55571.53;4979631;28;20410;-69
2021/11/03 18:51:58;;;;;;;37.33;23.95;;;;;;;-140.66;100.00;55571.53;4965281;28;20034;-68
2021/11/03 18:55:03;;;;;;;66.18;36.70;;;;;;;-140.66;100.00;55571.53;4978564;28;20035;-68
2021/11/03 18:57:52;;;;;;;35.20;23.98;;;;;;;-140.66;100.00;55571.53;4964438;28;20118;-68
2021/11/03 20:15:39;;;;;;;25.58;16.52;;;;;;;-140.66;100.00;55571.53;5518004;23;20051;-68
2021/11/03 20:18:39;;;;;;;22.73;17.15;;;;;;;-140.66;100.00;55571.53;4943489;29;20050;-68
2021/11/03 20:21:35;;;;;;;21.83;15.52;;;;;;;-140.66;100.00;55571.53;4957128;29;20023;-69
2021/11/03 20:24:33;;;;;;;20.40;14.10;;;;;;;-140.66;100.00;55571.53;4943580;29;20027;-67
2021/11/03 20:27:21;;;;;;;18.90;14.05;;;;;;;-140.66;100.00;55571.53;4942586;29;20110;-68
2021/11/03 20:30:19;;;;;;;23.17;14.55;;;;;;;-140.66;100.00;55571.53;4958443;28;20027;-68
2021/11/03 20:33:31;;;;;;;22.40;14.77;;;;;;;-140.66;100.00;55571.53;4958156;28;20030;-68
2021/11/03 21:15:09;;;;;;;11.15;8.88;;;;;;;-140.66;100.00;55571.53;6003394;23;20018;-67
2021/11/03 21:17:55;;;;;;;16.92;13.43;;;;;;;-140.66;100.00;55571.53;4937673;29;20367;-68
2021/11/03 21:20:43;;;;;;;22.77;16.60;;;;;;;-140.66;100.00;55571.53;4937614;29;20059;-67
2021/11/03 21:23:29;;;;;;;28.55;19.48;;;;;;;-140.66;100.00;55571.53;4937105;29;20027;-68
2021/11/03 21:26:15;;;;;;;23.30;17.92;;;;;;;-140.66;100.00;55571.53;4937165;29;20046;-69
2021/11/03 21:29:01;;;;;;;24.10;16.48;;;;;;;-140.66;100.00;55571.53;4938286;28;20024;-68
2021/11/03 21:31:47;;;;;;;24.58;15.95;;;;;;;-140.66;100.00;55571.53;4938694;28;20106;-68
2021/11/03 21:34:33;;;;;;;21.83;15.55;;;;;;;-140.66;100.00;55571.53;4923597;29;20023;-68
2021/11/03 21:37:21;;;;;;;21.90;14.02;;;;;;;-140.66;100.00;55571.53;4938665;28;20062;-69
2021/11/03 21:40:08;;;;;;;19.40;13.25;;;;;;;-140.66;100.00;55571.53;4923137;29;20039;-67
2021/11/03 21:42:54;;;;;;;18.17;12.52;;;;;;;-140.66;100.00;55571.53;4937047;29;20031;-67
2021/11/03 21:45:40;;;;;;;19.67;12.77;;;;;;;-140.66;100.00;55571.53;4935637;29;20438;-68
2021/11/03 21:48:26;;;;;;;16.95;12.15;;;;;;;-140.66;100.00;55571.53;4935743;29;20031;-70
